Time;durP1;ratioP1;P1;durP2;ratioP2;P2;SDS_P1;SDS_P2;PMS_P1;PMS_P2;Temp;Humidity;BMP_temperature;BMP_pressure;BME280_temperature;BME280_humidity;BME280_pressure;Samples;Min_cycle;Max_cycle;Signal;HPM_P1;HPM_P2
2022/03/06 00:00:48;;;;;;;10.00;3.33;;;;;;;;;;5009514;28;20022;-78
2022/03/06 00:03:14;;;;;;;11.77;3.53;;;;;;;;;;5010694;28;20038;-78
2022/03/06 00:05:40;;;;;;;7.13;3.05;;;;;;;;;;5015190;28;20030;-78
2022/03/06 00:08:06;;;;;;;5.22;3.25;;;;;;;;;;5010325;28;20045;-79
2022/03/06 00:10:33;;;;;;;2.78;1.73;;;;;;;;;;5012276;28;20022;-78
2022/03/06 00:12:58;;;;;;;5.97;2.88;;;;;;;;;;5007403;28;20021;-79
2022/03/06 00:15:26;;;;;;;4.35;2.10;;;;;;;;;;5012115;28;20036;-80
2022/03/06 00:17:53;;;;;;;9.02;3.47;;;;;;;;;;5006768;28;20054;-78
2022/03/06 00:20:19;;;;;;;4.88;2.70;;;;;;;;;;5010023;28;20036;-78
2022/03/06 00:22:45;;;;;;;5.70;2.58;;;;;;;;;;5002673;28;20090;-79
2022/03/06 00:25:11;;;;;;;5.78;3.10;;;;;;;;;;5009239;28;20022;-79
2022/03/06 00:27:37;;;;;;;7.20;2.63;;;;;;;;;;5003971;28;21689;-78
2022/03/06 00:30:04;;;;;;;5.75;2.97;;;;;;;;;;5014491;28;20029;-80
2022/03/06 00:32:30;;;;;;;4.82;2.47;;;;;;;;;;5013536;28;20038;-79
2022/03/06 00:34:56;;;;;;;7.60;2.47;;;;;;;;;;5006820;28;20038;-79
2022/03/06 00:37:22;;;;;;;3.70;2.35;;;;;;;;;;5007552;28;20042;-79
2022/03/06 00:39:48;;;;;;;10.32;3.22;;;;;;;;;;5014105;28;20479;-78
2022/03/06 00:42:14;;;;;;;3.97;2.95;;;;;;;;;;5003611;28;20038;-79
2022/03/06 00:44:40;;;;;;;7.70;3.33;;;;;;;;;;5014795;28;20022;-78
2022/03/06 00:47:07;;;;;;;9.82;2.88;;;;;;;;;;5012270;28;20072;-79
2022/03/06 00:49:33;;;;;;;5.65;2.72;;;;;;;;;;5009276;28;20027;-78
2022/03/06 00:51:59;;;;;;;7.25;3.17;;;;;;;;;;5004715;28;20057;-78
2022/03/06 00:54:25;;;;;;;7.70;3.00;;;;;;;;;;5010658;28;20034;-79
2022/03/06 00:56:51;;;;;;;6.05;3.10;;;;;;;;;;5011193;28;20050;-78
2022/03/06 00:59:17;;;;;;;7.00;2.60;;;;;;;;;;5008354;28;20037;-78
2022/03/06 01:01:43;;;;;;;7.13;3.05;;;;;;;;;;5003838;28;20029;-77
2022/03/06 01:04:09;;;;;;;6.35;3.25;;;;;;;;;;5007504;28;20033;-78
2022/03/06 01:06:36;;;;;;;7.78;2.95;;;;;;;;;;5012912;28;20038;-79
2022/03/06 01:09:02;;;;;;;6.07;2.67;;;;;;;;;;5013505;28;20029;-79
2022/03/06 01:11:29;;;;;;;7.35;3.35;;;;;;;;;;5009439;28;20033;-77
2022/03/06 01:13:55;;;;;;;5.45;2.75;;;;;;;;;;5006182;28;20072;-79
2022/03/06 01:16:21;;;;;;;10.43;4.10;;;;;;;;;;5009766;28;20103;-78
2022/03/06 01:18:47;;;;;;;11.02;4.00;;;;;;;;;;5013656;28;20089;-78
2022/03/06 01:21:13;;;;;;;11.40;3.90;;;;;;;;;;5008219;28;20068;-78
2022/03/06 01:23:38;;;;;;;8.52;3.55;;;;;;;;;;5009949;28;20033;-80
2022/03/06 01:26:04;;;;;;;6.55;3.22;;;;;;;;;;5006662;28;20114;-79
2022/03/06 01:28:31;;;;;;;15.20;4.47;;;;;;;;;;5002562;28;20028;-78
2022/03/06 01:30:57;;;;;;;7.30;2.65;;;;;;;;;;5010473;28;20033;-79
2022/03/06 01:33:22;;;;;;;7.95;3.17;;;;;;;;;;5010409;28;20504;-77
2022/03/06 01:35:48;;;;;;;8.63;3.05;;;;;;;;;;5007002;28;20026;-77
2022/03/06 01:38:14;;;;;;;4.85;2.65;;;;;;;;;;5003627;28;20038;-79
2022/03/06 01:40:40;;;;;;;5.07;2.05;;;;;;;;;;5010913;28;20028;-79
2022/03/06 01:43:06;;;;;;;5.70;2.38;;;;;;;;;;5002390;28;20030;-78
2022/03/06 01:45:33;;;;;;;5.55;3.15;;;;;;;;;;5011214;28;20031;-79
2022/03/06 01:47:59;;;;;;;11.10;3.45;;;;;;;;;;5009311;28;20029;-79
2022/03/06 01:50:30;;;;;;;4.65;2.42;;;;;;;;;;5008274;28;20030;-77
2022/03/06 01:52:57;;;;;;;11.70;3.92;;;;;;;;;;5006280;28;20026;-79
2022/03/06 01:55:24;;;;;;;5.18;2.33;;;;;;;;;;5005770;28;20587;-79
2022/03/06 01:57:51;;;;;;;12.45;3.63;;;;;;;;;;5004532;28;20585;-78
2022/03/06 02:00:18;;;;;;;4.05;2.97;;;;;;;;;;5012568;28;20080;-79
2022/03/06 02:02:45;;;;;;;8.65;3.65;;;;;;;;;;5013407;28;20091;-78
2022/03/06 02:05:11;;;;;;;7.78;4.88;;;;;;;;;;5003465;28;20052;-77
2022/03/06 02:07:37;;;;;;;8.60;3.38;;;;;;;;;;5007303;28;20030;-79
2022/03/06 02:10:05;;;;;;;7.50;3.30;;;;;;;;;;5011343;28;20105;-78
2022/03/06 02:12:31;;;;;;;5.68;3.33;;;;;;;;;;5004554;28;20030;-79
2022/03/06 02:14:58;;;;;;;5.68;1.98;;;;;;;;;;5010680;28;20532;-78
2022/03/06 02:17:25;;;;;;;4.82;2.85;;;;;;;;;;5010818;28;20033;-78
2022/03/06 02:19:54;;;;;;;5.80;2.97;;;;;;;;;;5006692;28;20026;-79
2022/03/06 02:22:25;;;;;;;7.22;3.00;;;0.60;99.90;;;;;;5007385;28;20535;-78
2022/03/06 02:24:51;;;;;;;10.07;3.22;;;;;;;;;;5010112;28;20111;-79
2022/03/06 02:27:17;;;;;;;11.85;4.28;;;;;;;;;;5008407;28;20141;-78
2022/03/06 02:29:44;;;;;;;8.50;3.28;;;;;;;;;;5016953;28;20056;-78
2022/03/06 02:32:11;;;;;;;10.60;4.43;;;;;;;;;;5011716;28;20030;-79
2022/03/06 02:34:40;;;;;;;4.45;2.60;;;;;;;;;;5007610;28;20145;-79
2022/03/06 02:37:06;;;;;;;9.85;3.72;;;;;;;;;;5011709;28;20074;-81
2022/03/06 02:39:32;;;;;;;7.70;2.72;;;;;;;;;;5013358;28;20022;-78
2022/03/06 02:42:00;;;;;;;4.75;2.55;;;;;;;;;;5008873;28;20033;-80
2022/03/06 02:44:26;;;;;;;6.18;3.13;;;;;;;;;;5012240;28;20499;-78
2022/03/06 02:46:52;;;;;;;5.50;2.85;;;;;;;;;;5010926;28;20057;-79
2022/03/06 02:49:18;;;;;;;12.43;4.47;;;;;;;;;;5010571;28;20066;-79
2022/03/06 02:51:45;;;;;;;6.70;3.05;;;;;;;;;;5016292;28;20579;-78
2022/03/06 02:54:12;;;;;;;7.90;3.63;;;;;;;;;;5014831;28;20505;-78
2022/03/06 02:56:38;;;;;;;5.32;3.03;;;;;;;;;;5013675;28;20045;-80
2022/03/06 02:59:05;;;;;;;12.13;3.45;;;;;;;;;;5011190;28;20069;-79
2022/03/06 03:01:31;;;;;;;4.47;2.17;;;;;;;;;;5015054;28;20126;-79
2022/03/06 03:03:57;;;;;;;6.53;3.22;;;;;;;;;;5015750;28;20382;-79
2022/03/06 03:06:23;;;;;;;6.30;2.10;;;;;;;;;;5016651;28;20034;-78
2022/03/06 03:08:49;;;;;;;6.30;2.60;;;;;;;;;;5011396;28;20141;-79
2022/03/06 03:11:15;;;;;;;6.00;3.60;;;;;;;;;;5012421;28;20034;-77
2022/03/06 03:13:41;;;;;;;9.82;3.55;;;;;;;;;;5009133;28;20026;-78
2022/03/06 03:16:07;;;;;;;6.22;2.25;;;;;;;;;;5016091;28;20044;-76
2022/03/06 03:18:33;;;;;;;7.95;2.95;;;;;;;;;;5016405;28;20101;-77
2022/03/06 03:20:59;;;;;;;6.85;3.10;;;;;;;;;;5016262;28;20053;-78
2022/03/06 03:23:25;;;;;;;4.57;2.47;;;;;;;;;;5009741;28;20034;-77
2022/03/06 03:25:51;;;;;;;6.55;2.92;;;;;;;;;;5010546;28;20022;-78
2022/03/06 03:28:17;;;;;;;13.18;3.58;;;;;;;;;;5008010;28;20027;-79
2022/03/06 03:30:43;;;;;;;4.47;2.53;;;;;;;;;;5016893;28;20037;-77
2022/03/06 03:33:09;;;;;;;9.40;3.33;;;;;;;;;;5026680;28;20064;-77
2022/03/06 03:35:35;;;;;;;8.45;3.15;;;;;;;;;;5024331;28;20085;-78
2022/03/06 03:38:01;;;;;;;6.03;2.95;;;;;;;;;;5020020;28;20057;-77
2022/03/06 03:40:27;;;;;;;3.88;2.35;;;;;;;;;;5015891;28;20058;-80
2022/03/06 03:42:53;;;;;;;8.77;3.25;;;;;;;;;;5007169;28;20031;-79
2022/03/06 03:45:19;;;;;;;10.30;3.50;;;;;;;;;;5014683;28;20030;-78
2022/03/06 03:47:45;;;;;;;6.93;3.45;;;;;;;;;;5014593;28;20677;-80
2022/03/06 03:50:12;;;;;;;7.05;3.38;;;;;;;;;;5013571;28;20098;-78
2022/03/06 03:52:37;;;;;;;7.82;2.35;;;;;;;;;;5006069;28;20049;-76
2022/03/06 03:55:04;;;;;;;7.05;2.85;;;;;;;;;;5010259;28;20042;-78
2022/03/06 03:57:30;;;;;;;6.85;2.85;;;;;;;;;;5006469;28;20037;-78
2022/03/06 03:59:56;;;;;;;12.35;2.65;;;;;;;;;;5008375;28;20541;-80
2022/03/06 04:02:22;;;;;;;6.35;3.08;;;;;;;;;;5010326;28;20045;-79
2022/03/06 04:04:49;;;;;;;6.22;1.95;;;;;;;;;;5010939;28;20018;-80
2022/03/06 04:07:15;;;;;;;12.07;3.58;;;;;;;;;;5013877;28;20121;-80
2022/03/06 04:09:41;;;;;;;3.75;2.30;;;;;;;;;;5016856;28;20112;-80
2022/03/06 04:12:07;;;;;;;7.05;2.75;;;;;;;;;;5008651;28;20027;-80
2022/03/06 04:14:33;;;;;;;5.13;2.67;;;;;;;;;;5006058;28;20034;-78
2022/03/06 04:16:59;;;;;;;8.02;3.20;;;;;;;;;;5003430;28;20087;-77
2022/03/06 04:19:25;;;;;;;5.90;1.88;;;;;;;;;;5012658;28;20034;-79
2022/03/06 04:21:51;;;;;;;6.97;2.65;;;;;;;;;;5004712;28;20029;-80
2022/03/06 04:24:17;;;;;;;4.63;2.85;;;;;;;;;;5011984;28;20030;-80
2022/03/06 04:26:43;;;;;;;5.65;3.13;;;;;;;;;;5008974;28;20026;-79
2022/03/06 04:29:09;;;;;;;8.88;3.60;;;;;;;;;;5007456;28;20029;-78
2022/03/06 04:31:35;;;;;;;4.18;2.15;;;;;;;;;;5006872;28;20025;-78
2022/03/06 04:34:01;;;;;;;4.70;2.58;;;;;;;;;;5013999;28;20060;-80
2022/03/06 04:36:27;;;;;;;6.15;3.05;;;;;;;;;;5014588;28;20042;-78
2022/03/06 04:38:53;;;;;;;4.03;2.83;;;;;;;;;;5008801;28;20104;-80
2022/03/06 04:41:19;;;;;;;7.90;3.50;;;;;;;;;;5011556;28;20026;-80
2022/03/06 04:43:45;;;;;;;5.55;3.42;;;;;;;;;;5004296;28;20026;-80
2022/03/06 04:46:11;;;;;;;5.47;2.72;;;;;;;;;;5012320;28;20097;-80
2022/03/06 04:48:37;;;;;;;12.20;3.45;;;;;;;;;;5012544;28;20076;-79
2022/03/06 04:51:04;;;;;;;5.70;2.92;;;;;;;;;;5007109;28;20026;-77
2022/03/06 04:53:31;;;;;;;12.70;3.58;;;;;;;;;;5007841;28;20029;-79
2022/03/06 04:55:56;;;;;;;9.20;3.42;;;;;;;;;;5015333;28;20587;-78
2022/03/06 04:58:22;;;;;;;7.82;4.03;;;;;;;;;;5012530;28;20030;-79
2022/03/06 05:00:49;;;;;;;6.95;3.05;;;;;;;;;;5007445;28;20466;-78
2022/03/06 05:03:15;;;;;;;8.02;2.83;;;;;;;;;;5004831;28;20064;-79
2022/03/06 05:05:41;;;;;;;10.27;3.17;;;;;;;;;;5011874;28;20014;-79
2022/03/06 05:08:07;;;;;;;9.85;3.85;;;;;;;;;;5006122;28;20030;-80
2022/03/06 05:10:33;;;;;;;9.32;3.92;;;;;;;;;;5011779;28;21520;-78
2022/03/06 05:12:59;;;;;;;5.43;2.60;;;;;;;;;;5006918;28;20084;-78
2022/03/06 05:15:25;;;;;;;8.25;4.10;;;;;;;;;;5011108;28;20052;-80
2022/03/06 05:17:51;;;;;;;4.43;2.35;;;;;;;;;;5010040;28;20042;-79
2022/03/06 05:20:17;;;;;;;4.88;2.80;;;;;;;;;;5008722;28;20471;-79
2022/03/06 05:22:43;;;;;;;8.00;3.08;;;;;;;;;;5006794;28;20030;-79
2022/03/06 05:25:10;;;;;;;4.50;2.90;;;;;;;;;;5010237;28;20094;-78
2022/03/06 05:27:36;;;;;;;7.43;3.08;;;;;;;;;;5008689;28;20327;-79
2022/03/06 05:30:03;;;;;;;6.85;2.95;;;;;;;;;;5015389;28;20075;-79
2022/03/06 05:32:29;;;;;;;10.27;2.65;;;;;;;;;;5007290;28;20041;-79
2022/03/06 05:34:55;;;;;;;6.15;2.15;;;;;;;;;;5010017;28;20031;-78
2022/03/06 05:37:21;;;;;;;5.60;3.10;;;;;;;;;;5008998;28;20045;-79
2022/03/06 05:39:47;;;;;;;5.43;2.90;;;;;;;;;;5014124;28;20030;-79
2022/03/06 05:42:14;;;;;;;5.20;2.22;;;;;;;;;;5005859;28;20037;-77
2022/03/06 05:44:40;;;;;;;3.30;1.88;;;;;;;;;;5005958;28;20022;-79
2022/03/06 05:47:06;;;;;;;4.60;2.47;;;;;;;;;;5010956;28;20029;-80
2022/03/06 05:49:32;;;;;;;6.68;3.40;;;;;;;;;;5009111;28;20154;-78
2022/03/06 05:51:58;;;;;;;12.90;3.83;;;;;;;;;;5009384;28;20112;-79
2022/03/06 05:54:24;;;;;;;5.97;3.33;;;;;;;;;;5012079;28;20037;-77
2022/03/06 05:56:50;;;;;;;6.13;2.95;;;;;;;;;;5007455;28;20124;-78
2022/03/06 05:59:16;;;;;;;4.90;2.65;;;;;;;;;;5009655;28;20026;-79
2022/03/06 06:01:42;;;;;;;10.30;3.95;;;;;;;;;;5011113;28;20117;-78
2022/03/06 06:04:08;;;;;;;7.72;3.40;;;;;;;;;;5013371;28;20034;-79
2022/03/06 06:06:34;;;;;;;7.75;3.78;;;;;;;;;;5015468;28;20026;-79
2022/03/06 06:09:00;;;;;;;7.05;2.97;;;;;;;;;;5011151;28;20164;-79
2022/03/06 06:11:26;;;;;;;8.18;3.90;;;;;;;;;;5012482;28;20089;-78
2022/03/06 06:13:52;;;;;;;7.38;3.35;;;;;;;;;;5010887;28;20053;-79
2022/03/06 06:16:18;;;;;;;8.20;3.22;;;;;;;;;;5017876;28;20478;-79
2022/03/06 06:18:44;;;;;;;4.95;3.00;;;;;;;;;;5017224;28;20509;-77
2022/03/06 06:21:11;;;;;;;10.90;3.40;;;;;;;;;;5011899;28;20030;-79
2022/03/06 06:23:37;;;;;;;9.23;4.28;;;;;;;;;;5010383;28;20486;-79
2022/03/06 06:26:03;;;;;;;11.73;3.25;;;;;;;;;;5007710;28;20018;-78
2022/03/06 06:28:29;;;;;;;6.68;3.60;;;;;;;;;;5008917;28;20033;-78
2022/03/06 06:30:55;;;;;;;6.65;3.85;;;;;;;;;;5011881;28;20025;-78
2022/03/06 06:33:21;;;;;;;6.22;3.78;;;;;;;;;;5009439;28;20075;-78
2022/03/06 06:35:47;;;;;;;5.15;2.67;;;;;;;;;;5015022;28;20037;-79
2022/03/06 06:38:13;;;;;;;5.35;3.08;;;;;;;;;;5011550;28;20092;-78
2022/03/06 06:40:39;;;;;;;5.68;3.50;;;;;;;;;;5015096;28;20025;-78
2022/03/06 06:43:04;;;;;;;5.32;2.97;;;-0.60;99.90;;;;;;5007424;28;20053;-78
2022/03/06 06:45:30;;;;;;;8.38;3.45;;;;;;;;;;5011478;28;20038;-78
2022/03/06 06:47:57;;;;;;;14.38;4.78;;;;;;;;;;5013118;28;20367;-80
2022/03/06 06:50:23;;;;;;;15.77;7.97;;;;;;;;;;5009470;28;20030;-78
2022/03/06 06:52:49;;;;;;;26.83;10.63;;;;;;;;;;5009323;28;20050;-78
2022/03/06 06:55:15;;;;;;;22.73;9.45;;;;;;;;;;5011705;28;20399;-78
2022/03/06 06:57:41;;;;;;;21.05;9.20;;;;;;;;;;5011428;28;20038;-79
2022/03/06 07:00:07;;;;;;;15.60;7.18;;;;;;;;;;5012472;28;20029;-79
2022/03/06 07:02:33;;;;;;;19.85;5.45;;;;;;;;;;5010680;28;20062;-79
2022/03/06 07:04:59;;;;;;;23.15;8.98;;;;;;;;;;5007035;28;20038;-79
2022/03/06 07:07:25;;;;;;;21.25;8.70;;;;;;;;;;5013976;28;20019;-79
2022/03/06 07:09:51;;;;;;;17.92;6.18;;;;;;;;;;5014865;28;20124;-79
2022/03/06 07:12:17;;;;;;;26.23;8.30;;;;;;;;;;5002447;28;20034;-78
2022/03/06 07:14:43;;;;;;;17.15;5.75;;;;;;;;;;5015846;28;20018;-80
2022/03/06 07:17:09;;;;;;;19.05;7.38;;;;;;;;;;5015314;28;20104;-78
2022/03/06 07:19:35;;;;;;;6.50;4.28;;;;;;;;;;5013311;28;20141;-77
2022/03/06 07:22:01;;;;;;;12.82;4.57;;;;;;;;;;5013183;28;20025;-79
2022/03/06 07:24:27;;;;;;;6.25;3.45;;;;;;;;;;5009920;28;20502;-79
2022/03/06 07:26:53;;;;;;;5.63;3.33;;;;;;;;;;5008399;28;20022;-79
2022/03/06 07:29:19;;;;;;;7.10;3.28;;;;;;;;;;5002284;28;20034;-79
2022/03/06 07:31:45;;;;;;;8.65;3.72;;;;;;;;;;5012471;28;20014;-79
2022/03/06 07:34:11;;;;;;;13.50;3.05;;;;;;;;;;5010971;28;20034;-78
2022/03/06 07:36:37;;;;;;;7.22;3.33;;;;;;;;;;5006382;28;20053;-79
2022/03/06 07:39:03;;;;;;;6.70;3.80;;;;;;;;;;5008657;28;20094;-78
2022/03/06 07:41:29;;;;;;;14.85;3.22;;;;;;;;;;5010501;28;20773;-79
2022/03/06 07:43:55;;;;;;;9.70;4.35;;;;;;;;;;5009174;28;20032;-78
2022/03/06 07:46:21;;;;;;;6.60;2.97;;;;;;;;;;5013585;28;20026;-78
2022/03/06 07:48:47;;;;;;;6.57;3.08;;;;;;;;;;5013097;28;20037;-79
2022/03/06 07:51:13;;;;;;;10.25;4.50;;;;;;;;;;5009774;28;20537;-79
2022/03/06 07:53:39;;;;;;;7.72;4.03;;;;;;;;;;5011770;28;20596;-79
2022/03/06 07:56:05;;;;;;;7.63;4.70;;;;;;;;;;5010466;28;20030;-78
2022/03/06 07:58:31;;;;;;;4.28;2.97;;;;;;;;;;5006075;28;20046;-77
2022/03/06 08:00:57;;;;;;;10.52;4.70;;;;;;;;;;5013241;28;20136;-79
2022/03/06 08:03:23;;;;;;;11.45;4.05;;;;;;;;;;5010725;28;20034;-80
2022/03/06 08:05:49;;;;;;;11.30;4.10;;;;;;;;;;5007989;28;20032;-79
2022/03/06 08:08:15;;;;;;;7.47;3.42;;;;;;;;;;5010361;28;20023;-79
2022/03/06 08:10:41;;;;;;;6.63;3.90;;;;;;;;;;5012449;28;20044;-79
2022/03/06 08:13:07;;;;;;;9.95;3.28;;;;;;;;;;5005767;28;20086;-80
2022/03/06 08:15:33;;;;;;;7.82;3.58;;;;;;;;;;5010840;28;20033;-79
2022/03/06 08:17:59;;;;;;;6.97;3.35;;;;;;;;;;5007933;28;20037;-80
2022/03/06 08:20:25;;;;;;;8.02;3.03;;;;;;;;;;5010793;28;20030;-79
2022/03/06 08:22:51;;;;;;;6.25;3.13;;;;;;;;;;5014707;28;20025;-80
2022/03/06 08:25:20;;;;;;;7.63;3.40;;;;;;;;;;5013530;28;20033;-78
2022/03/06 08:27:46;;;;;;;10.77;3.30;;;;;;;;;;5004886;28;20719;-78
2022/03/06 08:30:13;;;;;;;11.30;3.90;;;;;;;;;;5011506;28;20057;-79
2022/03/06 08:32:39;;;;;;;10.48;3.53;;;;;;;;;;5010962;28;20087;-80
2022/03/06 08:35:06;;;;;;;6.00;3.45;;;;;;;;;;5009508;28;20081;-78
2022/03/06 08:37:32;;;;;;;10.27;3.65;;;;;;;;;;5008801;28;20042;-77
2022/03/06 08:39:58;;;;;;;7.95;3.58;;;;;;;;;;5010800;28;20032;-78
2022/03/06 08:42:24;;;;;;;9.77;3.40;;;;;;;;;;5006046;28;20045;-78
2022/03/06 08:44:50;;;;;;;9.50;3.90;;;;;;;;;;5013009;28;20498;-80
2022/03/06 08:47:16;;;;;;;14.23;5.75;;;;;;;;;;5008701;28;20095;-79
2022/03/06 08:49:42;;;;;;;9.82;4.32;;;;;;;;;;5012857;28;20102;-79
2022/03/06 08:52:10;;;;;;;10.88;3.72;;;;;;;;;;5008311;28;20028;-78
2022/03/06 08:54:36;;;;;;;4.82;2.80;;;;;;;;;;5009546;28;20088;-80
2022/03/06 08:57:03;;;;;;;6.00;3.35;;;;;;;;;;5007886;28;20026;-79
2022/03/06 08:59:29;;;;;;;8.65;3.53;;;;;;;;;;5012267;28;20029;-80
2022/03/06 09:01:55;;;;;;;7.60;3.20;;;;;;;;;;5016204;28;20105;-79
2022/03/06 09:04:25;;;;;;;9.02;3.38;;;;;;;;;;5015150;28;20022;-81
2022/03/06 09:06:51;;;;;;;8.77;3.70;;;;;;;;;;5012076;28;20034;-80
2022/03/06 09:09:17;;;;;;;5.65;2.53;;;;;;;;;;5007882;28;20375;-80
2022/03/06 09:11:45;;;;;;;7.25;2.90;;;;;;;;;;5008879;28;20085;-77
2022/03/06 09:14:11;;;;;;;6.65;2.90;;;;;;;;;;5012252;28;20064;-79
2022/03/06 09:16:37;;;;;;;6.18;2.58;;;;;;;;;;5015342;28;20053;-78
2022/03/06 09:19:03;;;;;;;6.15;2.92;;;;;;;;;;5013832;28;20033;-78
2022/03/06 09:21:29;;;;;;;4.28;2.35;;;;;;;;;;5009630;28;21741;-80
2022/03/06 09:23:55;;;;;;;5.90;3.05;;;;;;;;;;5010902;28;20088;-80
2022/03/06 09:26:21;;;;;;;6.97;2.80;;;;;;;;;;5014779;28;20030;-80
2022/03/06 09:28:47;;;;;;;7.43;3.42;;;;;;;;;;5011344;28;20113;-78
2022/03/06 09:31:13;;;;;;;8.15;2.90;;;;;;;;;;5014682;28;20494;-80
2022/03/06 09:33:39;;;;;;;6.60;2.55;;;;;;;;;;5015668;28;20038;-81
2022/03/06 09:36:05;;;;;;;4.30;2.42;;;;;;;;;;5014057;28;20080;-79
2022/03/06 09:38:31;;;;;;;6.45;2.92;;;;;;;;;;5014924;28;20045;-80
2022/03/06 09:41:00;;;;;;;9.13;3.25;;;;;;;;;;5017260;28;20030;-79
2022/03/06 09:43:27;;;;;;;4.78;2.85;;;;;;;;;;5016849;28;20037;-79
2022/03/06 09:45:59;;;;;;;7.70;2.97;;;;;;;;;;5017218;28;20034;-80
2022/03/06 09:48:25;;;;;;;8.05;4.00;;;;;;;;;;5014552;28;20034;-79
2022/03/06 09:50:51;;;;;;;5.80;2.90;;;;;;;;;;5017958;28;20025;-79
2022/03/06 09:53:17;;;;;;;5.78;2.17;;;;;;;;;;5014508;28;20026;-80
2022/03/06 09:55:43;;;;;;;8.63;3.10;;;;;;;;;;5018381;28;20041;-80
2022/03/06 09:58:10;;;;;;;4.97;2.88;;;;;;;;;;5012567;28;20044;-80
2022/03/06 10:00:36;;;;;;;4.13;2.70;;;;;;;;;;5013518;28;20076;-80
2022/03/06 10:03:03;;;;;;;4.70;2.67;;;;;;;;;;5018820;28;20026;-78
2022/03/06 10:05:29;;;;;;;6.97;3.35;;;;;;;;;;5014988;28;20030;-79
2022/03/06 10:08:14;;;;;;;4.95;2.63;;;;;;;;;;5011391;28;20026;-79
2022/03/06 10:10:40;;;;;;;9.85;2.55;;;;;;;;;;5019533;28;20059;-79
2022/03/06 10:13:17;;;;;;;8.65;3.67;;;;;;;;;;5007341;28;20038;-79
2022/03/06 10:16:02;;;;;;;5.55;3.13;;;;;;;;;;5015723;28;20030;-81
2022/03/06 10:18:33;;;;;;;7.60;2.58;;;;;;;;;;5013337;28;20049;-80
2022/03/06 10:21:02;;;;;;;10.27;3.28;;;;;;;;;;5012326;28;20033;-78
2022/03/06 10:23:29;;;;;;;9.60;2.97;;;;;;;;;;5015220;28;20030;-81
2022/03/06 10:26:01;;;;;;;10.55;4.03;;;;;;;;;;5019339;28;20117;-79
2022/03/06 10:28:27;;;;;;;4.32;2.42;;;;;;;;;;5012996;28;20049;-79
2022/03/06 10:30:53;;;;;;;7.68;3.65;;;;;;;;;;5014639;28;20033;-80
2022/03/06 10:33:20;;;;;;;5.55;3.00;;;;;;;;;;5015130;28;20029;-80
2022/03/06 10:35:47;;;;;;;10.23;4.68;;;;;;;;;;5010714;28;20089;-81
2022/03/06 10:38:17;;;;;;;8.20;3.63;;;;;;;;;;5013981;28;20042;-78
2022/03/06 10:40:43;;;;;;;5.70;2.65;;;;;;;;;;5017117;28;20052;-79
2022/03/06 10:43:25;;;;;;;8.02;3.50;;;;;;;;;;5007670;28;20030;-81
2022/03/06 10:46:04;;;;;;;5.60;2.93;;;;;;;;;;5005089;28;20026;-79
2022/03/06 10:48:30;;;;;;;7.30;3.35;;;;;;;;;;5017864;28;20053;-79
2022/03/06 10:51:00;;;;;;;8.68;2.80;;;;;;;;;;5012877;28;20025;-79
2022/03/06 10:53:28;;;;;;;5.22;2.70;;;;;;;;;;5011591;28;20022;-79
2022/03/06 10:55:54;;;;;;;4.70;2.25;;;;;;;;;;5017153;28;20021;-81
2022/03/06 10:58:20;;;;;;;10.63;3.28;;;;;;;;;;5012505;28;20040;-81
2022/03/06 11:00:47;;;;;;;6.15;2.38;;;;;;;;;;5014160;28;20030;-79
2022/03/06 11:03:14;;;;;;;8.77;3.20;;;;;;;;;;5016103;28;20065;-78
2022/03/06 11:05:41;;;;;;;6.63;3.00;;;;;;;;;;5009487;28;20398;-78
2022/03/06 11:08:08;;;;;;;3.83;1.88;;;;;;;;;;5011187;28;20512;-78
2022/03/06 11:10:34;;;;;;;7.10;2.97;;;6.60;82.60;;;;;;5017665;28;20040;-81
2022/03/06 11:13:02;;;;;;;5.57;2.00;;;;;;;;;;5014679;28;20116;-81
2022/03/06 11:15:28;;;;;;;4.65;2.80;;;;;;;;;;5008270;28;20048;-80
2022/03/06 11:17:54;;;;;;;5.75;2.95;;;;;;;;;;5014129;28;20102;-78
2022/03/06 11:20:20;;;;;;;6.55;3.33;;;;;;;;;;5014194;28;20026;-79
2022/03/06 11:22:54;;;;;;;6.25;2.72;;;;;;;;;;5009647;28;20056;-78
2022/03/06 11:25:22;;;;;;;6.97;3.03;;;;;;;;;;5008395;28;20034;-80
2022/03/06 11:27:59;;;;;;;7.20;3.10;;;;;;;;;;5008382;28;20052;-80
2022/03/06 11:30:25;;;;;;;5.32;2.65;;;;;;;;;;5010513;28;20149;-80
2022/03/06 11:33:02;;;;;;;9.07;3.17;;;;;;;;;;5008599;28;20042;-80
2022/03/06 11:35:33;;;;;;;6.85;3.22;;;;;;;;;;5008631;28;20668;-80
2022/03/06 11:37:59;;;;;;;5.00;2.58;;;;;;;;;;5013164;28;20132;-80
2022/03/06 11:40:43;;;;;;;5.22;3.00;;;;;;;;;;5013197;28;20029;-78
2022/03/06 11:43:09;;;;;;;8.25;2.92;;;;;;;;;;5008154;28;20555;-80
2022/03/06 11:45:45;;;;;;;8.52;2.42;;;;;;;;;;5011403;28;20084;-78
2022/03/06 11:48:22;;;;;;;7.55;3.15;;;;;;;;;;5007244;28;20041;-78
2022/03/06 11:51:07;;;;;;;6.25;2.78;;;;;;;;;;5007910;28;20657;-77
2022/03/06 11:53:45;;;;;;;7.20;3.10;;;6.50;75.60;;;;;;5010901;28;20057;-80
2022/03/06 11:56:30;;;;;;;6.10;3.20;;;;;;;;;;5010342;28;20037;-80
2022/03/06 11:58:56;;;;;;;6.10;3.25;;;;;;;;;;5008533;28;20128;-78
2022/03/06 12:01:42;;;;;;;8.55;4.65;;;;;;;;;;5009097;28;20034;-77
2022/03/06 12:04:18;;;;;;;9.90;4.32;;;;;;;;;;5009601;28;20492;-79
2022/03/06 12:06:47;;;;;;;10.20;4.60;;;;;;;;;;5003166;28;20081;-77
2022/03/06 12:09:17;;;;;;;14.20;5.93;;;;;;;;;;5007706;28;20033;-78
2022/03/06 12:11:44;;;;;;;13.25;5.93;;;;;;;;;;5007497;28;20022;-79
2022/03/06 12:14:14;;;;;;;11.38;4.40;;;;;;;;;;5007931;28;20037;-79
2022/03/06 12:16:59;;;;;;;12.57;4.78;;;;;;;;;;5006989;28;20052;-79
2022/03/06 12:19:24;;;;;;;10.48;4.78;;;5.70;95.20;;;;;;5012398;28;20029;-79
2022/03/06 12:21:50;;;;;;;8.85;3.33;;;;;;;;;;5006880;28;20065;-78
2022/03/06 12:24:28;;;;;;;10.13;4.43;;;;;;;;;;5011972;28;20038;-79
2022/03/06 12:26:54;;;;;;;8.40;3.13;;;;;;;;;;5008953;28;20087;-78
2022/03/06 12:29:39;;;;;;;8.80;3.78;;;;;;;;;;5004682;28;20034;-81
2022/03/06 12:32:24;;;;;;;5.70;3.20;;;;;;;;;;5008993;28;20041;-78
2022/03/06 12:34:56;;;;;;;8.30;3.47;;;;;;;;;;5008205;28;20084;-78
2022/03/06 12:37:23;;;;;;;6.50;3.05;;;;;;;;;;5006552;28;20080;-79
2022/03/06 12:39:50;;;;;;;9.10;4.32;;;;;;;;;;5011744;28;20025;-79
2022/03/06 12:42:24;;;;;;;9.68;3.58;;;;;;;;;;5009860;28;20669;-80
2022/03/06 12:44:52;;;;;;;9.60;2.67;;;;;;;;;;5008754;28;20490;-80
2022/03/06 12:47:18;;;;;;;7.55;3.20;;;;;;;;;;5011949;28;20041;-79
2022/03/06 12:49:54;;;;;;;7.55;3.17;;;;;;;;;;5008601;28;21255;-79
2022/03/06 12:52:21;;;;;;;5.38;3.35;;;;;;;;;;5001697;28;20483;-80
2022/03/06 12:54:48;;;;;;;6.28;2.53;;;;;;;;;;5007203;28;20034;-79
2022/03/06 12:57:14;;;;;;;14.07;5.28;;;;;;;;;;5004535;28;20048;-78
2022/03/06 12:59:41;;;;;;;7.95;4.28;;;6.10;80.40;;;;;;5008611;28;20026;-80
2022/03/06 13:02:08;;;;;;;9.48;3.35;;;;;;;;;;5012828;28;20110;-81
2022/03/06 13:04:34;;;;;;;8.82;4.43;;;;;;;;;;5005463;28;20025;-79
2022/03/06 13:07:01;;;;;;;10.23;4.03;;;6.90;81.70;;;;;;5006034;28;20022;-81
2022/03/06 13:09:29;;;;;;;14.50;4.07;;;;;;;;;;5008764;28;20052;-80
2022/03/06 13:11:56;;;;;;;7.35;2.92;;;;;;;;;;5004882;28;20033;-80
2022/03/06 13:14:34;;;;;;;12.48;5.05;;;;;;;;;;5008867;28;20092;-80
2022/03/06 13:17:01;;;;;;;5.40;2.47;;;;;;;;;;5006977;28;20586;-80
2022/03/06 13:19:27;;;;;;;7.15;3.05;;;;;;;;;;5012048;28;20026;-81
2022/03/06 13:21:53;;;;;;;9.35;4.05;;;;;;;;;;5007427;28;20038;-80
2022/03/06 13:24:19;;;;;;;5.78;2.75;;;;;;;;;;5008838;28;20122;-81
2022/03/06 13:26:46;;;;;;;19.98;7.65;;;;;;;;;;5007078;28;20037;-79
2022/03/06 13:29:16;;;;;;;14.27;5.13;;;;;;;;;;5006592;28;20526;-81
2022/03/06 13:31:43;;;;;;;6.25;3.85;;;6.70;77.10;;;;;;5009444;28;20095;-78
2022/03/06 13:34:10;;;;;;;7.82;3.22;;;;;;;;;;5007149;28;20387;-80
2022/03/06 13:36:37;;;;;;;8.25;3.65;;;;;;;;;;5005113;28;20038;-80
2022/03/06 13:39:10;;;;;;;6.07;2.75;;;;;;;;;;4982410;28;20025;-81
2022/03/06 13:41:36;;;;;;;7.35;3.22;;;;;;;;;;4989134;28;20158;-80
2022/03/06 13:44:06;;;;;;;5.85;2.65;;;;;;;;;;4994556;28;20494;-79
2022/03/06 13:46:37;;;;;;;11.73;4.38;;;;;;;;;;5002150;28;20034;-81
2022/03/06 13:49:09;;;;;;;6.20;2.53;;;;;;;;;;4992128;28;20030;-78
2022/03/06 13:51:35;;;;;;;10.55;3.38;;;;;;;;;;4994722;28;20109;-80
2022/03/06 13:54:03;;;;;;;10.38;3.42;;;;;;;;;;4992864;28;20046;-79
2022/03/06 13:56:37;;;;;;;3.70;2.53;;;;;;;;;;5004183;28;20038;-80
2022/03/06 13:59:04;;;;;;;7.13;3.95;;;;;;;;;;4996422;28;20042;-80
2022/03/06 14:01:30;;;;;;;6.55;2.85;;;;;;;;;;4993506;28;20675;-80
2022/03/06 14:04:02;;;;;;;6.57;2.55;;;6.00;78.30;;;;;;5002469;28;20029;-78
2022/03/06 14:06:38;;;;;;;4.95;3.08;;;;;;;;;;5001250;28;20018;-80
2022/03/06 14:09:37;;;;;;;12.77;5.95;;;;;;;;;;4994872;28;20172;-79
2022/03/06 14:12:13;;;;;;;10.68;5.07;;;;;;;;;;4991659;28;20473;-80
2022/03/06 14:14:40;;;;;;;8.90;4.32;;;;;;;;;;4998112;28;20061;-80
2022/03/06 14:17:14;;;;;;;5.30;2.78;;;;;;;;;;5013731;28;20058;-80
2022/03/06 14:19:40;;;;;;;8.45;4.40;;;;;;;;;;5000165;28;20064;-78
2022/03/06 14:22:07;;;;;;;7.88;3.33;;;;;;;;;;5012208;28;20147;-78
2022/03/06 14:24:33;;;;;;;8.18;4.32;;;;;;;;;;5008509;28;20034;-79
2022/03/06 14:27:10;;;;;;;6.30;3.20;;;;;;;;;;5005886;28;20034;-78
2022/03/06 14:29:42;;;;;;;9.30;4.10;;;;;;;;;;5010863;28;20502;-79
2022/03/06 14:32:46;;;;;;;8.07;4.13;;;5.80;76.80;;;;;;5006634;28;20490;-78
2022/03/06 14:35:34;;;;;;;8.77;3.53;;;;;;;;;;5009120;28;20125;-79
2022/03/06 14:38:08;;;;;;;7.63;3.50;;;;;;;;;;5005657;28;20053;-78